Pagina principale
METAR-TAF:

METAR-TAF

Aeroporti :

Aeroporto Internazionale di Nadi

Nadi, Figi

latitudine: 17-45S, longitudine: 177-27E, altezza: 13 m

Osservazione

Il bollettino è stato emesso 47 minuti fa, alle 05:00 UTC
Vento 8 kt da sud-ovest
Temperature 26°C
Umidità 61%
Pressione 1013 hPa
Visibilità 10 km o più
Nubi sparse ad un'altezza di 3000 ft

METAR: NFFN 180500Z 22008KT 9999 SCT030 26/18 Q1013 NOSIG

Ora: 17:47 (05:47 UTC)

Previsione

Il bollettino è stato emesso 16 minuti fa, alle 05:31 UTC
Previsione valida dal 18 alle 06 UTC al 19 alle 06 UTC
Vento 5 kt da est/sud-est
Visibilità 10 km o più
Poco nuvoloso ad un'altezza di 2500 ft
Evoluzione graduale
dal 18 alle 23 UTC al 19 alle 01 UTC
Vento 10 kt da ovest

TAF: NFFN 180531Z 1806/1906 12005KT 9999 FEW025 BECMG 1823/1901 27010KT

Osservazioni e previsioni meteorologiche di più di 4000 aeroporti (messaggi METAR e TAF).

Le stazioni disponibili sono rappresentate dai dischi gialli e rossi sulla carta.

Puntare il mouse per vedere il nome della stazione.

Clicca sopra per visualizzare le osservazioni e previsioni meteorologiche.

Per cambiare la mappa : fare clic sui pulsanti verdi con una croce nera per ingrandire, il pulsante verde con un trattino per diminuire, o sulla freccia verde per le mappe adiacenti.


METAR-TAF: